Scott, Wisconsin
Current Conditions -  °F | °C
As of 1:53 PM on Friday 31 Oct 2014 (Local Time) from KGRB Reporting Station
Broken Clouds Broken Clouds  
Wind Chill: 28°   Ceiling: 4800
Heat Index: 39°   Visibility: 10mi
Dew Point: 21°   Wind: 23mph
Humidity: 49%   Direction: 10°N
Pressure: 30.33"   Gusts: 37mph
Location:  44.4814°N, 88.0196°W
Report Text: KGRB 311853Z 01020G32KT 10SM BKN048 04/M06 A3033 RMK AO2 PK WND 36035/1810 SLP279 T00391061
Loading
Personal Weather Stations






























Interactive Weather Map
Tropical Storm Tracking
New forecast layout! Learn more

10-Day Weather Forecast

Advertisements
Track Severe Weather on mobile